createdAt,value
2023-03-31T00:01:54.331Z,0.90
2023-03-31T00:04:24.036Z,1.03
2023-03-31T00:06:54.380Z,1.03
2023-03-31T00:09:22.898Z,1.10
2023-03-31T00:11:51.037Z,0.93
2023-03-31T00:14:19.355Z,1.10
2023-03-31T00:16:47.380Z,0.90
2023-03-31T00:19:19.912Z,1.00
2023-03-31T00:21:48.178Z,0.90
2023-03-31T00:24:17.689Z,1.03
2023-03-31T00:26:45.664Z,1.13
2023-03-31T00:29:14.237Z,0.90
2023-03-31T00:31:42.187Z,1.10
2023-03-31T00:34:10.168Z,1.10
2023-03-31T00:36:47.291Z,1.30
2023-03-31T00:39:17.872Z,1.00
2023-03-31T00:41:46.030Z,1.00
2023-03-31T00:44:15.017Z,1.00
2023-03-31T00:46:45.373Z,1.10
2023-03-31T00:49:16.329Z,1.10
2023-03-31T00:51:44.357Z,1.13
2023-03-31T00:54:12.664Z,1.00
2023-03-31T00:56:45.539Z,1.00
2023-03-31T00:59:14.478Z,1.20
2023-03-31T01:01:43.686Z,1.00
2023-03-31T01:04:12.010Z,0.80
2023-03-31T01:06:46.888Z,1.07
2023-03-31T01:09:16.867Z,0.80
2023-03-31T01:11:46.437Z,1.00
2023-03-31T01:14:14.289Z,1.00
2023-03-31T01:16:42.236Z,1.13
2023-03-31T01:19:17.253Z,1.20
2023-03-31T01:22:10.472Z,0.97
2023-03-31T01:24:54.371Z,1.70
2023-03-31T01:27:34.899Z,0.90
2023-03-31T01:30:20.580Z,1.10
2023-03-31T01:33:13.005Z,1.10
2023-03-31T01:36:10.561Z,0.97
2023-03-31T01:39:15.471Z,1.00
2023-03-31T01:41:48.984Z,1.07
2023-03-31T01:44:20.744Z,0.90
2023-03-31T01:46:52.174Z,0.83
2023-03-31T01:49:22.333Z,0.93
2023-03-31T01:51:53.763Z,1.07
2023-03-31T01:54:23.636Z,1.30
2023-03-31T01:56:53.464Z,1.07
2023-03-31T01:59:23.706Z,0.70
2023-03-31T02:01:53.408Z,1.10
2023-03-31T02:04:22.287Z,1.13
2023-03-31T02:06:56.252Z,1.00
2023-03-31T02:09:27.055Z,0.80
2023-03-31T02:11:56.774Z,1.10
2023-03-31T02:14:25.835Z,1.00
2023-03-31T02:16:58.285Z,1.20
2023-03-31T02:19:27.426Z,0.80
2023-03-31T02:21:55.559Z,0.90
2023-03-31T02:24:25.545Z,1.07
2023-03-31T02:26:56.349Z,0.70
2023-03-31T02:29:24.396Z,1.07
2023-03-31T02:31:55.576Z,0.87
2023-03-31T02:34:23.632Z,1.00
2023-03-31T02:36:51.508Z,0.90
2023-03-31T02:39:21.345Z,0.90
2023-03-31T02:41:49.408Z,0.80
2023-03-31T02:44:18.675Z,0.80
2023-03-31T02:46:46.556Z,0.93
2023-03-31T02:49:14.447Z,1.10
2023-03-31T02:52:12.632Z,1.00
2023-03-31T02:55:06.007Z,0.80
2023-03-31T02:57:51.763Z,0.90
2023-03-31T03:00:24.455Z,0.93
2023-03-31T03:03:00.716Z,0.80
2023-03-31T03:05:34.769Z,1.00
2023-03-31T03:08:28.983Z,1.10
2023-03-31T03:11:02.469Z,0.90
2023-03-31T03:13:33.629Z,1.00
2023-03-31T03:16:05.844Z,0.90
2023-03-31T03:18:33.867Z,0.90
2023-03-31T03:21:01.787Z,1.00
2023-03-31T03:23:29.877Z,0.97
2023-03-31T03:25:57.756Z,0.83
2023-03-31T03:28:25.636Z,0.70
2023-03-31T03:30:53.715Z,0.80
2023-03-31T03:33:25.119Z,0.90
2023-03-31T03:35:53.032Z,1.20
2023-03-31T03:38:20.986Z,0.87
2023-03-31T03:40:54.244Z,1.00
2023-03-31T03:43:22.128Z,0.87
2023-03-31T03:45:50.112Z,0.80
2023-03-31T03:48:18.065Z,0.80
2023-03-31T03:50:47.842Z,1.00
2023-03-31T03:53:15.866Z,0.90
2023-03-31T03:55:48.859Z,1.20
2023-03-31T03:58:18.985Z,0.93
2023-03-31T04:00:47.329Z,0.80
2023-03-31T04:03:16.426Z,0.70
2023-03-31T04:05:44.529Z,0.80
2023-03-31T04:08:13.721Z,0.80
2023-03-31T04:10:45.524Z,0.77
2023-03-31T04:13:13.556Z,0.70
2023-03-31T04:15:41.468Z,0.70
2023-03-31T04:18:11.124Z,1.07
2023-03-31T04:20:39.516Z,1.00
2023-03-31T04:23:09.586Z,0.87
2023-03-31T04:25:46.165Z,0.93
2023-03-31T04:28:14.580Z,0.90
2023-03-31T04:30:42.455Z,0.80
2023-03-31T04:33:10.427Z,0.97
2023-03-31T04:35:48.667Z,0.77
2023-03-31T04:38:18.621Z,0.90
2023-03-31T04:40:48.902Z,0.80
2023-03-31T04:43:16.920Z,0.80
2023-03-31T04:45:44.960Z,0.87
2023-03-31T04:48:12.962Z,0.80
2023-03-31T04:50:40.993Z,1.00
2023-03-31T04:53:08.866Z,1.07
2023-03-31T04:55:36.763Z,0.90
2023-03-31T04:58:06.137Z,1.00
2023-03-31T05:00:34.021Z,1.10
2023-03-31T05:03:02.019Z,0.90
2023-03-31T05:05:30.426Z,0.83
2023-03-31T05:07:58.361Z,0.97
2023-03-31T05:10:26.214Z,0.93
2023-03-31T05:12:54.128Z,1.00
2023-03-31T05:15:24.482Z,0.90
2023-03-31T05:17:52.702Z,1.27
2023-03-31T05:20:20.931Z,1.10
2023-03-31T05:22:48.872Z,1.10
2023-03-31T05:25:18.578Z,0.80
2023-03-31T05:27:49.975Z,0.80
2023-03-31T05:30:18.107Z,0.90
2023-03-31T05:32:47.892Z,0.90
2023-03-31T05:35:15.807Z,0.93
2023-03-31T05:37:43.659Z,0.90
2023-03-31T05:40:12.012Z,0.87
2023-03-31T05:42:39.928Z,1.07
2023-03-31T05:45:09.465Z,0.90
2023-03-31T05:47:39.192Z,1.10
2023-03-31T05:50:09.530Z,1.10
2023-03-31T05:52:37.543Z,0.80
2023-03-31T05:55:07.964Z,1.10
2023-03-31T05:57:35.855Z,1.03
2023-03-31T06:00:06.165Z,1.03
2023-03-31T06:02:34.325Z,1.17
2023-03-31T06:05:02.271Z,0.83
2023-03-31T06:07:31.512Z,1.17
2023-03-31T06:09:59.372Z,1.20
2023-03-31T06:12:27.317Z,1.07
2023-03-31T06:14:55.211Z,1.00
2023-03-31T06:17:23.117Z,1.10
2023-03-31T06:19:51.263Z,1.20
2023-03-31T06:22:19.156Z,1.00
2023-03-31T06:24:48.382Z,1.23
2023-03-31T06:27:16.263Z,1.10
2023-03-31T06:29:44.188Z,1.20
2023-03-31T06:32:12.194Z,1.13
2023-03-31T06:34:40.069Z,1.20
2023-03-31T06:37:07.951Z,1.27
2023-03-31T06:39:35.883Z,1.10
2023-03-31T06:42:05.430Z,1.00
2023-03-31T06:44:38.399Z,1.20
2023-03-31T06:47:08.865Z,1.30
2023-03-31T06:49:36.745Z,1.17
2023-03-31T06:52:05.101Z,1.30
2023-03-31T06:54:33.155Z,1.10
2023-03-31T06:57:01.112Z,1.20
2023-03-31T06:59:30.501Z,1.20
2023-03-31T07:01:58.436Z,1.13
2023-03-31T07:04:26.454Z,1.20
2023-03-31T07:06:54.322Z,1.13
2023-03-31T07:09:23.556Z,1.20
2023-03-31T07:11:51.597Z,1.40
2023-03-31T07:14:19.487Z,1.07
2023-03-31T07:16:50.505Z,1.40
2023-03-31T07:19:19.155Z,1.53
2023-03-31T07:21:47.054Z,1.50
2023-03-31T07:24:14.913Z,1.30
2023-03-31T07:26:42.794Z,1.20
2023-03-31T07:29:10.896Z,1.10
2023-03-31T07:31:38.865Z,1.30
2023-03-31T07:34:08.113Z,1.30
2023-03-31T07:36:36.636Z,1.30
2023-03-31T07:39:05.193Z,1.50
2023-03-31T07:41:33.214Z,1.30
2023-03-31T07:44:01.115Z,1.30
2023-03-31T07:46:29.362Z,1.40
2023-03-31T07:48:58.222Z,1.30
2023-03-31T07:51:27.737Z,1.10
2023-03-31T07:53:55.664Z,1.30
2023-03-31T07:56:24.860Z,1.40
2023-03-31T07:58:55.241Z,1.30
2023-03-31T08:01:28.860Z,1.30
2023-03-31T08:03:57.337Z,1.07
2023-03-31T08:06:27.298Z,1.30
2023-03-31T08:08:55.225Z,1.50
2023-03-31T08:11:23.254Z,1.30
2023-03-31T08:13:52.392Z,1.60
2023-03-31T08:16:20.367Z,1.20
2023-03-31T08:18:48.303Z,1.27
2023-03-31T08:21:16.203Z,1.37
2023-03-31T08:23:46.026Z,1.30
2023-03-31T08:26:17.739Z,1.30
2023-03-31T08:28:46.038Z,1.30
2023-03-31T08:31:16.275Z,1.37
2023-03-31T08:33:44.390Z,1.40
2023-03-31T08:36:14.017Z,1.20
2023-03-31T08:38:43.055Z,1.40
2023-03-31T08:41:18.023Z,1.40
2023-03-31T08:43:46.689Z,1.30
2023-03-31T08:46:15.875Z,1.70
2023-03-31T08:48:48.885Z,1.30
2023-03-31T08:51:21.126Z,1.50
2023-03-31T08:53:50.645Z,1.37
2023-03-31T08:56:22.453Z,1.40
2023-03-31T08:58:52.198Z,1.67
2023-03-31T09:01:25.425Z,1.80
2023-03-31T09:04:12.792Z,1.37
2023-03-31T09:06:42.724Z,1.30
2023-03-31T09:09:12.205Z,1.43
2023-03-31T09:11:41.658Z,1.50
2023-03-31T09:14:28.604Z,1.70
2023-03-31T09:17:03.520Z,1.53
2023-03-31T09:19:35.339Z,1.27
2023-03-31T09:22:03.249Z,1.10
2023-03-31T09:24:32.840Z,1.60
2023-03-31T09:27:02.925Z,1.50
2023-03-31T09:29:32.083Z,1.20
2023-03-31T09:32:03.081Z,1.30
2023-03-31T09:34:33.503Z,1.40
2023-03-31T09:37:01.409Z,1.33
2023-03-31T09:39:29.329Z,1.40
2023-03-31T09:41:57.178Z,1.20
2023-03-31T09:44:28.592Z,1.40
2023-03-31T09:46:56.818Z,2.00
2023-03-31T09:49:26.437Z,1.40
2023-03-31T09:52:01.922Z,1.63
2023-03-31T09:54:32.065Z,1.63
2023-03-31T09:56:59.942Z,1.50
2023-03-31T09:59:34.063Z,1.50
2023-03-31T10:02:03.949Z,1.37
2023-03-31T10:04:33.242Z,1.40
2023-03-31T10:07:01.827Z,1.33
2023-03-31T10:09:30.777Z,1.50
2023-03-31T10:12:00.019Z,1.67
2023-03-31T10:14:33.395Z,1.50
2023-03-31T10:17:04.988Z,1.30
2023-03-31T10:19:33.720Z,1.40
2023-03-31T10:22:02.528Z,1.30
2023-03-31T10:24:38.160Z,1.60
2023-03-31T10:27:08.737Z,1.43
2023-03-31T10:29:37.256Z,1.40
2023-03-31T10:32:10.723Z,1.50
2023-03-31T10:34:40.090Z,1.37
2023-03-31T10:37:08.010Z,1.90
2023-03-31T10:39:36.629Z,1.37
2023-03-31T10:42:04.638Z,1.40
2023-03-31T10:44:37.681Z,1.40
2023-03-31T10:47:10.958Z,1.60
2023-03-31T10:49:39.466Z,1.50
2023-03-31T10:52:19.769Z,1.23
2023-03-31T10:54:49.068Z,1.30
2023-03-31T10:57:17.198Z,1.40
2023-03-31T10:59:58.757Z,1.63
2023-03-31T11:02:50.389Z,1.30
2023-03-31T11:05:22.345Z,1.40
2023-03-31T11:07:59.927Z,1.70
2023-03-31T11:10:43.551Z,1.70
2023-03-31T11:13:14.241Z,1.30
2023-03-31T11:15:44.146Z,1.40
2023-03-31T11:18:27.058Z,1.30
2023-03-31T11:20:58.963Z,2.20
2023-03-31T11:23:31.074Z,1.17
2023-03-31T11:26:02.177Z,1.60
2023-03-31T11:28:47.927Z,1.43
2023-03-31T11:31:23.135Z,1.50
2023-03-31T11:34:10.765Z,1.90
2023-03-31T11:36:49.486Z,1.77
2023-03-31T11:39:24.709Z,2.03
2023-03-31T11:41:53.207Z,1.30
2023-03-31T11:44:21.424Z,1.23
2023-03-31T11:46:50.961Z,1.40
2023-03-31T11:49:21.852Z,1.20
2023-03-31T11:51:52.792Z,1.40
2023-03-31T11:54:24.558Z,2.40
2023-03-31T11:56:52.652Z,1.47
2023-03-31T11:59:20.596Z,1.20
2023-03-31T12:01:50.363Z,1.20
2023-03-31T12:04:26.353Z,1.20
2023-03-31T12:06:54.390Z,1.33
2023-03-31T12:09:24.179Z,1.23
2023-03-31T12:11:54.869Z,1.40
2023-03-31T12:14:29.032Z,1.37
2023-03-31T12:16:59.126Z,1.10
2023-03-31T12:19:29.896Z,1.20
2023-03-31T12:21:59.857Z,1.40
2023-03-31T12:24:35.198Z,1.40
2023-03-31T12:27:07.702Z,1.37
2023-03-31T12:29:37.148Z,1.40
2023-03-31T12:32:06.704Z,1.30
2023-03-31T12:34:36.007Z,1.27
2023-03-31T12:37:15.895Z,1.40
2023-03-31T12:39:50.717Z,1.27
2023-03-31T12:42:37.977Z,1.23
2023-03-31T12:45:08.207Z,1.40
2023-03-31T12:47:51.476Z,1.30
2023-03-31T12:50:42.275Z,1.20
2023-03-31T12:53:15.754Z,1.50
2023-03-31T12:55:47.011Z,1.20
2023-03-31T12:58:43.824Z,1.53
2023-03-31T13:01:16.589Z,1.20
2023-03-31T13:03:46.808Z,1.63
2023-03-31T13:06:51.833Z,1.13
2023-03-31T13:09:47.490Z,1.17
2023-03-31T13:12:17.214Z,1.30
2023-03-31T13:14:46.253Z,0.93
2023-03-31T13:17:28.099Z,1.00
2023-03-31T13:19:56.650Z,1.17
2023-03-31T13:22:34.168Z,1.20
2023-03-31T13:25:46.995Z,1.07
2023-03-31T13:28:33.744Z,1.00
2023-03-31T13:31:03.004Z,1.10
2023-03-31T13:33:50.313Z,1.10
2023-03-31T13:36:31.351Z,1.30
2023-03-31T13:39:14.295Z,1.00
2023-03-31T13:41:48.891Z,1.37
2023-03-31T13:44:30.150Z,1.00
2023-03-31T13:47:08.460Z,1.20
2023-03-31T13:49:48.553Z,1.20
2023-03-31T13:52:18.067Z,1.17
2023-03-31T13:55:15.697Z,1.20
2023-03-31T13:58:24.966Z,1.20
2023-03-31T14:01:19.133Z,1.47
2023-03-31T14:03:53.545Z,1.40
2023-03-31T14:06:24.806Z,1.20
2023-03-31T14:08:53.914Z,1.00
2023-03-31T14:11:26.946Z,1.10
2023-03-31T14:14:06.172Z,1.20
2023-03-31T14:16:36.363Z,1.10
2023-03-31T14:19:22.615Z,1.10
2023-03-31T14:21:53.318Z,1.20
2023-03-31T14:24:24.984Z,1.23
2023-03-31T14:26:59.070Z,1.30
2023-03-31T14:29:30.435Z,1.20
2023-03-31T14:32:01.084Z,1.30
2023-03-31T14:34:39.815Z,1.20
2023-03-31T14:37:08.301Z,1.10
2023-03-31T14:39:39.058Z,1.30
2023-03-31T14:42:12.733Z,1.10
2023-03-31T14:44:42.550Z,1.30
2023-03-31T14:47:15.004Z,1.13
2023-03-31T14:49:43.177Z,1.10
2023-03-31T14:52:16.177Z,0.90
2023-03-31T14:54:47.363Z,1.00
2023-03-31T14:57:19.329Z,1.00
2023-03-31T14:59:47.678Z,1.30
2023-03-31T15:02:17.638Z,1.00
2023-03-31T15:04:48.171Z,1.23
2023-03-31T15:07:18.477Z,1.20
2023-03-31T15:09:50.197Z,1.37
2023-03-31T15:12:22.810Z,1.10
2023-03-31T15:14:51.238Z,1.20
2023-03-31T15:17:23.192Z,1.33
2023-03-31T15:19:56.035Z,1.50
2023-03-31T15:22:24.811Z,1.27
2023-03-31T15:24:53.092Z,1.10
2023-03-31T15:27:35.765Z,1.20
2023-03-31T15:30:07.601Z,1.10
2023-03-31T15:32:37.526Z,1.10
2023-03-31T15:37:56.262Z,1.07
2023-03-31T15:40:24.931Z,1.07
2023-03-31T15:43:06.207Z,0.93
2023-03-31T15:45:49.888Z,1.00
2023-03-31T15:48:23.346Z,1.20
2023-03-31T15:50:51.743Z,1.07
2023-03-31T15:53:28.500Z,1.13
2023-03-31T15:55:57.056Z,1.00
2023-03-31T15:58:56.644Z,1.10
2023-03-31T16:01:25.311Z,1.10
2023-03-31T16:03:56.082Z,1.07
2023-03-31T16:06:30.606Z,1.10
2023-03-31T16:09:00.368Z,1.13
2023-03-31T16:11:29.095Z,1.23
2023-03-31T16:13:58.897Z,1.30
2023-03-31T16:16:27.150Z,1.00
2023-03-31T16:18:57.965Z,1.20
2023-03-31T16:21:26.731Z,1.00
2023-03-31T16:23:56.600Z,0.97
2023-03-31T16:26:25.845Z,1.10
2023-03-31T16:28:54.704Z,1.00
2023-03-31T16:31:34.244Z,1.03
2023-03-31T16:34:02.606Z,1.20
2023-03-31T16:36:31.190Z,1.00
2023-03-31T16:39:04.854Z,1.00
2023-03-31T16:41:32.855Z,1.20
2023-03-31T16:44:00.926Z,1.20
2023-03-31T16:46:30.256Z,1.00
2023-03-31T16:48:58.330Z,1.00
2023-03-31T16:51:26.303Z,0.93
2023-03-31T16:53:54.670Z,0.97
2023-03-31T16:56:24.165Z,1.07
2023-03-31T16:58:53.696Z,1.03
2023-03-31T17:01:21.802Z,1.10
2023-03-31T17:03:51.333Z,1.00
2023-03-31T17:06:19.536Z,1.03
2023-03-31T17:08:47.434Z,1.50
2023-03-31T17:11:15.889Z,1.00
2023-03-31T17:13:44.509Z,1.20
2023-03-31T17:18:43.453Z,1.23
2023-03-31T17:21:14.482Z,1.00
2023-03-31T17:23:43.023Z,0.80
2023-03-31T17:26:12.555Z,0.93
2023-03-31T17:28:40.925Z,0.90
2023-03-31T17:31:14.901Z,1.30
2023-03-31T17:33:43.589Z,0.90
2023-03-31T17:36:13.017Z,0.70
2023-03-31T17:38:41.827Z,1.03
2023-03-31T17:41:12.563Z,1.13
2023-03-31T17:43:40.719Z,0.80
2023-03-31T17:46:11.922Z,0.93
2023-03-31T17:48:40.676Z,1.00
2023-03-31T17:51:09.010Z,1.20
2023-03-31T17:53:38.292Z,1.07
2023-03-31T17:56:06.836Z,1.03
2023-03-31T17:58:34.935Z,1.10
2023-03-31T18:01:04.724Z,1.00
2023-03-31T18:03:32.654Z,0.90
2023-03-31T18:06:04.676Z,0.80
2023-03-31T18:08:33.085Z,2.03
2023-03-31T18:11:02.811Z,1.37
2023-03-31T18:13:30.732Z,0.93
2023-03-31T18:16:01.380Z,1.47
2023-03-31T18:18:29.441Z,0.93
2023-03-31T18:20:57.394Z,0.83
2023-03-31T18:23:25.372Z,0.60
2023-03-31T18:25:53.290Z,1.63
2023-03-31T18:28:22.687Z,1.10
2023-03-31T18:30:50.572Z,1.07
2023-03-31T18:33:18.770Z,1.17
2023-03-31T18:35:48.249Z,0.90
2023-03-31T18:38:16.570Z,0.93
2023-03-31T18:40:48.843Z,0.97
2023-03-31T18:43:18.270Z,1.00
2023-03-31T18:45:51.142Z,1.20
2023-03-31T18:48:19.229Z,1.10
2023-03-31T18:50:47.297Z,1.13
2023-03-31T18:53:15.891Z,0.80
2023-03-31T18:55:43.864Z,0.80
2023-03-31T18:58:12.160Z,0.70
2023-03-31T19:00:40.860Z,0.87
2023-03-31T19:03:10.744Z,0.90
2023-03-31T19:05:38.735Z,1.00
2023-03-31T19:08:06.769Z,1.40
2023-03-31T19:10:34.840Z,1.10
2023-03-31T19:13:04.398Z,1.67
2023-03-31T19:15:33.129Z,1.40
2023-03-31T19:18:01.360Z,0.80
2023-03-31T19:20:30.690Z,1.00
2023-03-31T19:22:58.729Z,0.97
2023-03-31T19:25:27.218Z,0.90
2023-03-31T19:27:55.518Z,0.90
2023-03-31T19:30:25.007Z,0.90
2023-03-31T19:32:53.630Z,0.87
2023-03-31T19:35:23.327Z,1.00
2023-03-31T19:37:57.516Z,0.80
2023-03-31T19:40:25.579Z,1.03
2023-03-31T19:42:53.491Z,0.90
2023-03-31T19:45:21.457Z,0.97
2023-03-31T19:47:49.478Z,1.00
2023-03-31T19:50:17.484Z,0.80
2023-03-31T19:52:46.862Z,1.47
2023-03-31T19:55:17.953Z,0.90
2023-03-31T19:57:45.930Z,0.90
2023-03-31T20:00:18.086Z,0.80
2023-03-31T20:02:46.229Z,0.93
2023-03-31T20:05:14.299Z,0.87
2023-03-31T20:07:42.173Z,0.80
2023-03-31T20:10:11.556Z,0.77
2023-03-31T20:12:40.808Z,0.90
2023-03-31T20:15:09.149Z,0.90
2023-03-31T20:17:38.513Z,0.90
2023-03-31T20:20:08.088Z,0.90
2023-03-31T20:22:37.252Z,0.90
2023-03-31T20:25:06.487Z,0.80
2023-03-31T20:27:34.360Z,0.90
2023-03-31T20:30:03.742Z,0.60
2023-03-31T20:32:31.728Z,0.80
2023-03-31T20:35:00.342Z,0.90
2023-03-31T20:37:28.611Z,0.80
2023-03-31T20:39:56.609Z,0.80
2023-03-31T20:42:24.559Z,0.90
2023-03-31T20:44:52.514Z,1.00
2023-03-31T20:47:23.063Z,0.90
2023-03-31T20:49:51.272Z,0.80
2023-03-31T20:52:19.153Z,0.90
2023-03-31T20:54:47.123Z,0.90
2023-03-31T20:57:15.265Z,1.00
2023-03-31T20:59:43.227Z,1.00
2023-03-31T21:02:12.142Z,0.83
2023-03-31T21:04:41.424Z,0.87
2023-03-31T21:07:09.336Z,0.93
2023-03-31T21:09:37.323Z,0.90
2023-03-31T21:12:06.276Z,0.80
2023-03-31T21:14:34.482Z,0.93
2023-03-31T21:17:02.591Z,0.90
2023-03-31T21:19:31.807Z,0.90
2023-03-31T21:22:01.176Z,0.80
2023-03-31T21:24:29.052Z,0.93
2023-03-31T21:26:56.984Z,0.90
2023-03-31T21:29:24.892Z,0.80
2023-03-31T21:31:52.855Z,0.97
2023-03-31T21:34:20.773Z,0.93
2023-03-31T21:36:50.158Z,1.10
2023-03-31T21:39:19.433Z,0.90
2023-03-31T21:41:49.574Z,0.90
2023-03-31T21:44:17.489Z,1.03
2023-03-31T21:46:47.872Z,0.80
2023-03-31T21:49:16.749Z,0.90
2023-03-31T21:51:45.317Z,0.90
2023-03-31T21:54:13.264Z,0.80
2023-03-31T21:56:42.478Z,0.80
2023-03-31T21:59:15.998Z,1.00
2023-03-31T22:01:44.163Z,0.93
2023-03-31T22:04:12.760Z,0.90
2023-03-31T22:06:41.229Z,0.80
2023-03-31T22:09:09.147Z,1.13
2023-03-31T22:11:37.075Z,0.60
2023-03-31T22:14:08.953Z,0.80
2023-03-31T22:16:37.310Z,0.87
2023-03-31T22:19:05.373Z,0.90
2023-03-31T22:21:43.724Z,0.90
2023-03-31T22:24:12.114Z,0.90
2023-03-31T22:26:40.059Z,0.93
2023-03-31T22:29:09.359Z,0.97
2023-03-31T22:31:37.352Z,0.80
2023-03-31T22:34:05.409Z,0.73
2023-03-31T22:36:33.283Z,0.90
2023-03-31T22:39:01.347Z,0.67
2023-03-31T22:41:29.253Z,0.83
2023-03-31T22:43:57.144Z,1.00
2023-03-31T22:46:26.420Z,0.90
2023-03-31T22:48:54.292Z,0.90
2023-03-31T22:51:22.172Z,0.77
2023-03-31T22:53:53.410Z,0.80
2023-03-31T22:56:21.502Z,1.20
2023-03-31T22:58:49.453Z,1.10
2023-03-31T23:01:18.431Z,0.90
2023-03-31T23:03:47.766Z,0.73
2023-03-31T23:06:16.266Z,1.10
2023-03-31T23:08:44.770Z,0.80
2023-03-31T23:11:13.426Z,0.93
2023-03-31T23:13:41.338Z,0.70
2023-03-31T23:16:10.680Z,0.83
2023-03-31T23:18:44.126Z,0.60
2023-03-31T23:21:13.439Z,0.70
2023-03-31T23:23:42.226Z,0.87
2023-03-31T23:26:10.286Z,0.90
2023-03-31T23:28:38.287Z,0.83
2023-03-31T23:31:06.368Z,0.63
2023-03-31T23:33:34.272Z,0.80
2023-03-31T23:36:02.532Z,1.13
2023-03-31T23:38:32.041Z,0.70
2023-03-31T23:41:00.338Z,0.70
2023-03-31T23:43:28.741Z,0.80
2023-03-31T23:45:59.836Z,0.80
2023-03-31T23:48:27.794Z,0.60
2023-03-31T23:50:55.689Z,0.80
2023-03-31T23:53:23.573Z,0.73
2023-03-31T23:55:56.412Z,0.70
2023-03-31T23:58:24.327Z,0.70
